sensor_id;sensor_type;location;lat;lon;timestamp;P1;durP1;ratioP1;P2;durP2;ratioP2
18316;SDS011;9284;52.298;21.164;2024-02-26T00:01:41;19.37;;;9.13;;
18316;SDS011;9284;52.298;21.164;2024-02-26T00:04:12;21.40;;;9.63;;
18316;SDS011;9284;52.298;21.164;2024-02-26T00:06:40;24.67;;;11.90;;
18316;SDS011;9284;52.298;21.164;2024-02-26T00:09:09;22.80;;;11.47;;
18316;SDS011;9284;52.298;21.164;2024-02-26T00:11:38;25.03;;;12.33;;
18316;SDS011;9284;52.298;21.164;2024-02-26T00:14:06;25.33;;;12.47;;
18316;SDS011;9284;52.298;21.164;2024-02-26T00:16:34;21.70;;;11.00;;
18316;SDS011;9284;52.298;21.164;2024-02-26T00:19:03;26.97;;;12.27;;
18316;SDS011;9284;52.298;21.164;2024-02-26T00:21:33;28.30;;;12.03;;
18316;SDS011;9284;52.298;21.164;2024-02-26T00:24:01;23.50;;;12.57;;
18316;SDS011;9284;52.298;21.164;2024-02-26T00:26:29;25.77;;;12.90;;
18316;SDS011;9284;52.298;21.164;2024-02-26T00:28:58;22.10;;;12.03;;
18316;SDS011;9284;52.298;21.164;2024-02-26T00:31:26;25.83;;;12.23;;
18316;SDS011;9284;52.298;21.164;2024-02-26T00:33:54;24.80;;;12.67;;
18316;SDS011;9284;52.298;21.164;2024-02-26T00:36:23;29.00;;;12.90;;
18316;SDS011;9284;52.298;21.164;2024-02-26T00:38:53;25.63;;;11.90;;
18316;SDS011;9284;52.298;21.164;2024-02-26T00:41:21;26.50;;;13.40;;
18316;SDS011;9284;52.298;21.164;2024-02-26T00:43:50;24.13;;;12.00;;
18316;SDS011;9284;52.298;21.164;2024-02-26T00:46:18;23.47;;;12.00;;
18316;SDS011;9284;52.298;21.164;2024-02-26T00:48:46;24.93;;;11.43;;
18316;SDS011;9284;52.298;21.164;2024-02-26T00:51:15;25.93;;;11.77;;
18316;SDS011;9284;52.298;21.164;2024-02-26T00:53:44;24.90;;;11.00;;
18316;SDS011;9284;52.298;21.164;2024-02-26T00:56:13;24.10;;;11.50;;
18316;SDS011;9284;52.298;21.164;2024-02-26T00:58:42;23.07;;;11.70;;
18316;SDS011;9284;52.298;21.164;2024-02-26T01:01:10;24.63;;;12.60;;
18316;SDS011;9284;52.298;21.164;2024-02-26T01:03:38;25.67;;;12.93;;
18316;SDS011;9284;52.298;21.164;2024-02-26T01:06:07;23.17;;;11.93;;
18316;SDS011;9284;52.298;21.164;2024-02-26T01:08:36;25.07;;;12.23;;
18316;SDS011;9284;52.298;21.164;2024-02-26T01:11:05;25.80;;;13.07;;
18316;SDS011;9284;52.298;21.164;2024-02-26T01:13:36;25.27;;;12.23;;
18316;SDS011;9284;52.298;21.164;2024-02-26T01:16:05;21.73;;;11.97;;
18316;SDS011;9284;52.298;21.164;2024-02-26T01:18:33;26.13;;;11.77;;
18316;SDS011;9284;52.298;21.164;2024-02-26T01:21:02;28.90;;;11.87;;
18316;SDS011;9284;52.298;21.164;2024-02-26T01:23:33;22.03;;;11.13;;
18316;SDS011;9284;52.298;21.164;2024-02-26T01:26:02;25.60;;;11.33;;
18316;SDS011;9284;52.298;21.164;2024-02-26T01:28:31;21.37;;;10.83;;
18316;SDS011;9284;52.298;21.164;2024-02-26T01:31:01;24.40;;;11.67;;
18316;SDS011;9284;52.298;21.164;2024-02-26T01:33:31;20.17;;;10.93;;
18316;SDS011;9284;52.298;21.164;2024-02-26T01:36:00;20.07;;;10.83;;
18316;SDS011;9284;52.298;21.164;2024-02-26T01:38:29;25.33;;;11.20;;
18316;SDS011;9284;52.298;21.164;2024-02-26T01:40:57;23.77;;;10.80;;
18316;SDS011;9284;52.298;21.164;2024-02-26T01:43:25;23.53;;;11.27;;
18316;SDS011;9284;52.298;21.164;2024-02-26T01:45:54;21.27;;;11.23;;
18316;SDS011;9284;52.298;21.164;2024-02-26T01:48:24;22.23;;;10.83;;
18316;SDS011;9284;52.298;21.164;2024-02-26T01:50:53;21.03;;;10.27;;
18316;SDS011;9284;52.298;21.164;2024-02-26T01:53:22;23.73;;;11.30;;
18316;SDS011;9284;52.298;21.164;2024-02-26T01:55:53;20.23;;;10.80;;
18316;SDS011;9284;52.298;21.164;2024-02-26T01:58:22;26.43;;;11.97;;
18316;SDS011;9284;52.298;21.164;2024-02-26T02:00:50;26.50;;;12.23;;
18316;SDS011;9284;52.298;21.164;2024-02-26T02:03:19;24.57;;;11.10;;
18316;SDS011;9284;52.298;21.164;2024-02-26T02:05:49;26.53;;;12.27;;
18316;SDS011;9284;52.298;21.164;2024-02-26T02:08:18;26.50;;;12.67;;
18316;SDS011;9284;52.298;21.164;2024-02-26T02:10:46;25.20;;;11.67;;
18316;SDS011;9284;52.298;21.164;2024-02-26T02:13:16;26.07;;;12.13;;
18316;SDS011;9284;52.298;21.164;2024-02-26T02:15:44;25.53;;;12.13;;
18316;SDS011;9284;52.298;21.164;2024-02-26T02:18:13;27.50;;;12.60;;
18316;SDS011;9284;52.298;21.164;2024-02-26T02:20:43;26.87;;;11.83;;
18316;SDS011;9284;52.298;21.164;2024-02-26T02:23:11;28.70;;;13.07;;
18316;SDS011;9284;52.298;21.164;2024-02-26T02:25:40;25.83;;;12.77;;
18316;SDS011;9284;52.298;21.164;2024-02-26T02:28:09;25.70;;;12.27;;
18316;SDS011;9284;52.298;21.164;2024-02-26T02:30:37;25.63;;;12.43;;
18316;SDS011;9284;52.298;21.164;2024-02-26T02:33:06;29.70;;;13.33;;
18316;SDS011;9284;52.298;21.164;2024-02-26T02:35:35;24.80;;;12.30;;
18316;SDS011;9284;52.298;21.164;2024-02-26T02:38:05;31.30;;;12.77;;
18316;SDS011;9284;52.298;21.164;2024-02-26T02:40:33;25.37;;;12.27;;
18316;SDS011;9284;52.298;21.164;2024-02-26T02:43:02;25.00;;;11.53;;
18316;SDS011;9284;52.298;21.164;2024-02-26T02:45:31;26.40;;;12.00;;
18316;SDS011;9284;52.298;21.164;2024-02-26T02:47:59;25.70;;;11.97;;
18316;SDS011;9284;52.298;21.164;2024-02-26T02:50:28;25.27;;;11.03;;
18316;SDS011;9284;52.298;21.164;2024-02-26T02:52:56;29.13;;;12.90;;
18316;SDS011;9284;52.298;21.164;2024-02-26T02:55:26;26.27;;;12.37;;
18316;SDS011;9284;52.298;21.164;2024-02-26T02:57:55;26.33;;;12.07;;
18316;SDS011;9284;52.298;21.164;2024-02-26T03:00:23;26.80;;;12.87;;
18316;SDS011;9284;52.298;21.164;2024-02-26T03:02:52;24.67;;;12.10;;
18316;SDS011;9284;52.298;21.164;2024-02-26T03:05:20;28.80;;;12.97;;
18316;SDS011;9284;52.298;21.164;2024-02-26T03:07:49;29.17;;;12.60;;
18316;SDS011;9284;52.298;21.164;2024-02-26T03:10:17;27.13;;;12.57;;
18316;SDS011;9284;52.298;21.164;2024-02-26T03:12:47;28.67;;;12.33;;
18316;SDS011;9284;52.298;21.164;2024-02-26T03:15:16;24.70;;;11.93;;
18316;SDS011;9284;52.298;21.164;2024-02-26T03:17:44;27.50;;;12.73;;
18316;SDS011;9284;52.298;21.164;2024-02-26T03:20:13;25.47;;;12.37;;
18316;SDS011;9284;52.298;21.164;2024-02-26T03:22:41;23.53;;;12.20;;
18316;SDS011;9284;52.298;21.164;2024-02-26T03:25:10;25.87;;;12.50;;
18316;SDS011;9284;52.298;21.164;2024-02-26T03:27:38;29.20;;;12.37;;
18316;SDS011;9284;52.298;21.164;2024-02-26T03:30:09;24.43;;;11.47;;
18316;SDS011;9284;52.298;21.164;2024-02-26T03:32:38;22.03;;;11.80;;
18316;SDS011;9284;52.298;21.164;2024-02-26T03:35:07;23.83;;;11.93;;
18316;SDS011;9284;52.298;21.164;2024-02-26T03:37:35;22.47;;;11.57;;
18316;SDS011;9284;52.298;21.164;2024-02-26T03:40:04;24.57;;;11.50;;
18316;SDS011;9284;52.298;21.164;2024-02-26T03:42:33;23.63;;;11.47;;
18316;SDS011;9284;52.298;21.164;2024-02-26T03:45:02;21.97;;;11.10;;
18316;SDS011;9284;52.298;21.164;2024-02-26T03:47:32;24.57;;;11.63;;
18316;SDS011;9284;52.298;21.164;2024-02-26T03:50:00;24.57;;;11.23;;
18316;SDS011;9284;52.298;21.164;2024-02-26T03:52:30;27.57;;;12.80;;
18316;SDS011;9284;52.298;21.164;2024-02-26T03:54:58;24.20;;;11.87;;
18316;SDS011;9284;52.298;21.164;2024-02-26T03:57:27;27.77;;;12.93;;
18316;SDS011;9284;52.298;21.164;2024-02-26T03:59:55;28.60;;;13.50;;
18316;SDS011;9284;52.298;21.164;2024-02-26T04:02:24;27.63;;;13.23;;
18316;SDS011;9284;52.298;21.164;2024-02-26T04:04:54;27.43;;;12.53;;
18316;SDS011;9284;52.298;21.164;2024-02-26T04:07:23;28.00;;;14.00;;
18316;SDS011;9284;52.298;21.164;2024-02-26T04:09:51;26.47;;;12.30;;
18316;SDS011;9284;52.298;21.164;2024-02-26T04:12:19;28.27;;;13.80;;
18316;SDS011;9284;52.298;21.164;2024-02-26T04:14:48;30.37;;;13.10;;
18316;SDS011;9284;52.298;21.164;2024-02-26T04:17:16;30.60;;;14.10;;
18316;SDS011;9284;52.298;21.164;2024-02-26T04:19:44;29.87;;;13.37;;
18316;SDS011;9284;52.298;21.164;2024-02-26T04:22:14;33.37;;;14.73;;
18316;SDS011;9284;52.298;21.164;2024-02-26T04:24:43;25.07;;;12.60;;
18316;SDS011;9284;52.298;21.164;2024-02-26T04:27:11;30.93;;;14.27;;
18316;SDS011;9284;52.298;21.164;2024-02-26T04:29:39;26.33;;;12.67;;
18316;SDS011;9284;52.298;21.164;2024-02-26T04:32:08;27.83;;;13.00;;
18316;SDS011;9284;52.298;21.164;2024-02-26T04:34:36;28.67;;;13.43;;
18316;SDS011;9284;52.298;21.164;2024-02-26T04:37:05;32.00;;;13.87;;
18316;SDS011;9284;52.298;21.164;2024-02-26T04:39:34;34.17;;;15.10;;
18316;SDS011;9284;52.298;21.164;2024-02-26T04:42:03;35.57;;;15.17;;
18316;SDS011;9284;52.298;21.164;2024-02-26T04:44:31;31.27;;;14.77;;
18316;SDS011;9284;52.298;21.164;2024-02-26T04:47:00;34.13;;;14.87;;
18316;SDS011;9284;52.298;21.164;2024-02-26T04:49:29;30.20;;;14.03;;
18316;SDS011;9284;52.298;21.164;2024-02-26T04:51:57;30.40;;;14.77;;
18316;SDS011;9284;52.298;21.164;2024-02-26T04:54:25;35.27;;;14.67;;
18316;SDS011;9284;52.298;21.164;2024-02-26T04:56:55;36.13;;;15.73;;
18316;SDS011;9284;52.298;21.164;2024-02-26T04:59:24;33.87;;;14.70;;
18316;SDS011;9284;52.298;21.164;2024-02-26T05:01:52;39.80;;;16.47;;
18316;SDS011;9284;52.298;21.164;2024-02-26T05:04:20;34.10;;;15.97;;
18316;SDS011;9284;52.298;21.164;2024-02-26T05:06:49;35.13;;;15.60;;
18316;SDS011;9284;52.298;21.164;2024-02-26T05:09:17;35.90;;;15.60;;
18316;SDS011;9284;52.298;21.164;2024-02-26T05:11:46;31.30;;;15.00;;
18316;SDS011;9284;52.298;21.164;2024-02-26T05:14:16;33.13;;;14.90;;
18316;SDS011;9284;52.298;21.164;2024-02-26T05:16:44;28.73;;;13.87;;
18316;SDS011;9284;52.298;21.164;2024-02-26T05:19:13;28.10;;;13.33;;
18316;SDS011;9284;52.298;21.164;2024-02-26T05:21:42;33.37;;;13.17;;
18316;SDS011;9284;52.298;21.164;2024-02-26T05:24:10;29.50;;;13.67;;
18316;SDS011;9284;52.298;21.164;2024-02-26T05:26:39;29.57;;;13.10;;
18316;SDS011;9284;52.298;21.164;2024-02-26T05:29:07;30.73;;;14.73;;
18316;SDS011;9284;52.298;21.164;2024-02-26T05:31:37;32.23;;;14.03;;
18316;SDS011;9284;52.298;21.164;2024-02-26T05:34:06;32.57;;;14.23;;
18316;SDS011;9284;52.298;21.164;2024-02-26T05:36:34;31.87;;;14.20;;
18316;SDS011;9284;52.298;21.164;2024-02-26T05:39:03;35.47;;;15.43;;
18316;SDS011;9284;52.298;21.164;2024-02-26T05:41:31;31.37;;;14.27;;
18316;SDS011;9284;52.298;21.164;2024-02-26T05:43:59;35.93;;;15.07;;
18316;SDS011;9284;52.298;21.164;2024-02-26T05:46:27;34.90;;;16.07;;
18316;SDS011;9284;52.298;21.164;2024-02-26T05:48:57;34.17;;;16.37;;
18316;SDS011;9284;52.298;21.164;2024-02-26T05:51:26;35.47;;;15.27;;
18316;SDS011;9284;52.298;21.164;2024-02-26T05:53:54;38.00;;;15.60;;
18316;SDS011;9284;52.298;21.164;2024-02-26T05:56:22;36.10;;;16.03;;
18316;SDS011;9284;52.298;21.164;2024-02-26T05:58:51;38.07;;;16.20;;
18316;SDS011;9284;52.298;21.164;2024-02-26T06:01:20;34.20;;;16.00;;
18316;SDS011;9284;52.298;21.164;2024-02-26T06:03:49;34.20;;;15.27;;
18316;SDS011;9284;52.298;21.164;2024-02-26T06:06:19;35.27;;;15.73;;
18316;SDS011;9284;52.298;21.164;2024-02-26T06:08:50;34.53;;;15.30;;
18316;SDS011;9284;52.298;21.164;2024-02-26T06:11:18;33.90;;;15.47;;
18316;SDS011;9284;52.298;21.164;2024-02-26T06:13:46;32.87;;;15.00;;
18316;SDS011;9284;52.298;21.164;2024-02-26T06:16:15;37.10;;;15.60;;
18316;SDS011;9284;52.298;21.164;2024-02-26T06:18:43;39.10;;;15.07;;
18316;SDS011;9284;52.298;21.164;2024-02-26T06:21:11;34.50;;;14.63;;
18316;SDS011;9284;52.298;21.164;2024-02-26T06:23:41;33.83;;;14.90;;
18316;SDS011;9284;52.298;21.164;2024-02-26T06:26:10;35.87;;;15.57;;
18316;SDS011;9284;52.298;21.164;2024-02-26T06:28:38;33.20;;;14.97;;
18316;SDS011;9284;52.298;21.164;2024-02-26T06:31:08;38.77;;;16.07;;
18316;SDS011;9284;52.298;21.164;2024-02-26T06:33:36;33.77;;;15.23;;
18316;SDS011;9284;52.298;21.164;2024-02-26T06:36:05;33.53;;;15.60;;
18316;SDS011;9284;52.298;21.164;2024-02-26T06:38:34;31.60;;;13.77;;
18316;SDS011;9284;52.298;21.164;2024-02-26T06:41:04;29.27;;;14.43;;
18316;SDS011;9284;52.298;21.164;2024-02-26T06:43:32;35.23;;;14.87;;
18316;SDS011;9284;52.298;21.164;2024-02-26T06:46:01;28.23;;;14.37;;
18316;SDS011;9284;52.298;21.164;2024-02-26T06:48:29;28.17;;;14.63;;
18316;SDS011;9284;52.298;21.164;2024-02-26T06:50:58;30.00;;;13.70;;
18316;SDS011;9284;52.298;21.164;2024-02-26T06:53:26;29.63;;;14.93;;
18316;SDS011;9284;52.298;21.164;2024-02-26T06:55:54;31.13;;;13.50;;
18316;SDS011;9284;52.298;21.164;2024-02-26T06:58:24;29.48;;;13.90;;
18316;SDS011;9284;52.298;21.164;2024-02-26T07:00:53;34.33;;;14.40;;
18316;SDS011;9284;52.298;21.164;2024-02-26T07:03:21;26.23;;;12.52;;
18316;SDS011;9284;52.298;21.164;2024-02-26T07:05:51;28.85;;;14.38;;
18316;SDS011;9284;52.298;21.164;2024-02-26T07:08:20;28.42;;;14.45;;
18316;SDS011;9284;52.298;21.164;2024-02-26T07:10:48;24.92;;;13.35;;
18316;SDS011;9284;52.298;21.164;2024-02-26T07:13:19;26.30;;;12.95;;
18316;SDS011;9284;52.298;21.164;2024-02-26T07:15:49;19.67;;;10.65;;
18316;SDS011;9284;52.298;21.164;2024-02-26T07:18:17;18.50;;;10.02;;
18316;SDS011;9284;52.298;21.164;2024-02-26T07:20:46;16.95;;;9.82;;
18316;SDS011;9284;52.298;21.164;2024-02-26T07:23:14;15.60;;;9.05;;
18316;SDS011;9284;52.298;21.164;2024-02-26T07:25:43;16.20;;;9.02;;
18316;SDS011;9284;52.298;21.164;2024-02-26T07:28:14;15.95;;;8.23;;
18316;SDS011;9284;52.298;21.164;2024-02-26T07:30:42;16.33;;;10.07;;
18316;SDS011;9284;52.298;21.164;2024-02-26T07:33:12;19.42;;;9.40;;
18316;SDS011;9284;52.298;21.164;2024-02-26T07:35:41;14.18;;;8.77;;
18316;SDS011;9284;52.298;21.164;2024-02-26T07:38:09;14.95;;;8.70;;
18316;SDS011;9284;52.298;21.164;2024-02-26T07:40:56;16.52;;;10.23;;
18316;SDS011;9284;52.298;21.164;2024-02-26T07:43:29;16.63;;;9.15;;
18316;SDS011;9284;52.298;21.164;2024-02-26T07:45:57;16.55;;;9.52;;
18316;SDS011;9284;52.298;21.164;2024-02-26T07:48:27;16.77;;;9.57;;
18316;SDS011;9284;52.298;21.164;2024-02-26T07:50:56;16.90;;;9.63;;
18316;SDS011;9284;52.298;21.164;2024-02-26T07:53:26;18.90;;;10.60;;
18316;SDS011;9284;52.298;21.164;2024-02-26T07:55:55;17.27;;;9.93;;
18316;SDS011;9284;52.298;21.164;2024-02-26T07:58:23;17.08;;;10.52;;
18316;SDS011;9284;52.298;21.164;2024-02-26T08:00:52;17.42;;;10.82;;
18316;SDS011;9284;52.298;21.164;2024-02-26T08:03:20;18.10;;;11.45;;
18316;SDS011;9284;52.298;21.164;2024-02-26T08:05:50;18.55;;;11.48;;
18316;SDS011;9284;52.298;21.164;2024-02-26T08:08:19;18.15;;;11.48;;
18316;SDS011;9284;52.298;21.164;2024-02-26T08:10:48;17.50;;;11.15;;
18316;SDS011;9284;52.298;21.164;2024-02-26T08:13:17;18.58;;;11.70;;
18316;SDS011;9284;52.298;21.164;2024-02-26T08:15:45;16.50;;;10.70;;
18316;SDS011;9284;52.298;21.164;2024-02-26T08:18:13;17.98;;;10.82;;
18316;SDS011;9284;52.298;21.164;2024-02-26T08:20:43;19.10;;;10.48;;
18316;SDS011;9284;52.298;21.164;2024-02-26T08:23:12;16.83;;;10.50;;
18316;SDS011;9284;52.298;21.164;2024-02-26T08:25:41;16.23;;;10.27;;
18316;SDS011;9284;52.298;21.164;2024-02-26T08:28:09;15.50;;;10.45;;
18316;SDS011;9284;52.298;21.164;2024-02-26T08:30:39;16.40;;;10.20;;
18316;SDS011;9284;52.298;21.164;2024-02-26T08:33:08;18.10;;;10.95;;
18316;SDS011;9284;52.298;21.164;2024-02-26T08:35:36;17.30;;;11.10;;
18316;SDS011;9284;52.298;21.164;2024-02-26T08:38:05;16.38;;;10.20;;
18316;SDS011;9284;52.298;21.164;2024-02-26T08:40:35;18.75;;;10.98;;
18316;SDS011;9284;52.298;21.164;2024-02-26T08:43:03;16.55;;;10.95;;
18316;SDS011;9284;52.298;21.164;2024-02-26T08:45:32;16.00;;;10.52;;
18316;SDS011;9284;52.298;21.164;2024-02-26T08:48:00;15.60;;;10.70;;
18316;SDS011;9284;52.298;21.164;2024-02-26T08:50:29;19.02;;;11.73;;
18316;SDS011;9284;52.298;21.164;2024-02-26T08:52:57;18.05;;;11.57;;
18316;SDS011;9284;52.298;21.164;2024-02-26T08:55:31;18.95;;;11.80;;
18316;SDS011;9284;52.298;21.164;2024-02-26T08:58:01;20.65;;;11.90;;
18316;SDS011;9284;52.298;21.164;2024-02-26T09:00:30;20.73;;;12.23;;
18316;SDS011;9284;52.298;21.164;2024-02-26T09:02:59;21.55;;;11.93;;
18316;SDS011;9284;52.298;21.164;2024-02-26T09:05:31;18.33;;;11.35;;
18316;SDS011;9284;52.298;21.164;2024-02-26T09:07:59;20.38;;;11.45;;
18316;SDS011;9284;52.298;21.164;2024-02-26T09:10:28;21.67;;;11.75;;
18316;SDS011;9284;52.298;21.164;2024-02-26T09:12:56;18.30;;;11.95;;
18316;SDS011;9284;52.298;21.164;2024-02-26T09:15:26;18.65;;;11.75;;
18316;SDS011;9284;52.298;21.164;2024-02-26T09:17:54;16.98;;;11.27;;
18316;SDS011;9284;52.298;21.164;2024-02-26T09:20:23;16.38;;;10.73;;
18316;SDS011;9284;52.298;21.164;2024-02-26T09:22:51;15.85;;;10.57;;
18316;SDS011;9284;52.298;21.164;2024-02-26T09:25:20;18.38;;;10.95;;
18316;SDS011;9284;52.298;21.164;2024-02-26T09:27:48;18.85;;;11.05;;
18316;SDS011;9284;52.298;21.164;2024-02-26T09:30:17;21.35;;;11.75;;
18316;SDS011;9284;52.298;21.164;2024-02-26T09:32:47;19.80;;;11.23;;
18316;SDS011;9284;52.298;21.164;2024-02-26T09:35:15;17.48;;;11.05;;
18316;SDS011;9284;52.298;21.164;2024-02-26T09:37:44;15.32;;;10.65;;
18316;SDS011;9284;52.298;21.164;2024-02-26T09:40:12;16.55;;;10.40;;
18316;SDS011;9284;52.298;21.164;2024-02-26T09:42:42;17.25;;;11.18;;
18316;SDS011;9284;52.298;21.164;2024-02-26T09:45:14;16.73;;;9.77;;
18316;SDS011;9284;52.298;21.164;2024-02-26T09:47:48;16.65;;;11.10;;
18316;SDS011;9284;52.298;21.164;2024-02-26T09:50:17;14.38;;;9.77;;
18316;SDS011;9284;52.298;21.164;2024-02-26T09:52:50;16.73;;;11.57;;
18316;SDS011;9284;52.298;21.164;2024-02-26T09:55:19;16.05;;;10.77;;
18316;SDS011;9284;52.298;21.164;2024-02-26T09:57:47;18.45;;;11.43;;
18316;SDS011;9284;52.298;21.164;2024-02-26T10:00:20;16.40;;;10.95;;
18316;SDS011;9284;52.298;21.164;2024-02-26T10:02:51;16.30;;;11.30;;
18316;SDS011;9284;52.298;21.164;2024-02-26T10:05:19;16.08;;;10.40;;
18316;SDS011;9284;52.298;21.164;2024-02-26T10:07:49;15.52;;;10.73;;
18316;SDS011;9284;52.298;21.164;2024-02-26T10:10:18;16.10;;;10.73;;
18316;SDS011;9284;52.298;21.164;2024-02-26T10:12:46;15.63;;;11.30;;
18316;SDS011;9284;52.298;21.164;2024-02-26T10:15:15;16.35;;;11.00;;
18316;SDS011;9284;52.298;21.164;2024-02-26T10:17:45;17.08;;;10.68;;
18316;SDS011;9284;52.298;21.164;2024-02-26T10:20:15;14.55;;;10.30;;
18316;SDS011;9284;52.298;21.164;2024-02-26T10:22:46;14.95;;;10.52;;
18316;SDS011;9284;52.298;21.164;2024-02-26T10:25:14;13.85;;;10.10;;
18316;SDS011;9284;52.298;21.164;2024-02-26T10:27:43;13.35;;;9.82;;
18316;SDS011;9284;52.298;21.164;2024-02-26T10:30:17;14.23;;;9.90;;
18316;SDS011;9284;52.298;21.164;2024-02-26T10:32:48;14.98;;;10.13;;
18316;SDS011;9284;52.298;21.164;2024-02-26T10:35:19;17.23;;;10.30;;
18316;SDS011;9284;52.298;21.164;2024-02-26T10:37:48;18.50;;;10.38;;
18316;SDS011;9284;52.298;21.164;2024-02-26T10:40:17;15.27;;;10.05;;
18316;SDS011;9284;52.298;21.164;2024-02-26T10:42:46;12.93;;;9.20;;
18316;SDS011;9284;52.298;21.164;2024-02-26T10:45:14;13.27;;;9.23;;
18316;SDS011;9284;52.298;21.164;2024-02-26T10:47:42;12.80;;;9.32;;
18316;SDS011;9284;52.298;21.164;2024-02-26T10:50:11;11.80;;;8.43;;
18316;SDS011;9284;52.298;21.164;2024-02-26T10:52:43;14.07;;;8.38;;
18316;SDS011;9284;52.298;21.164;2024-02-26T10:55:13;13.00;;;8.38;;
18316;SDS011;9284;52.298;21.164;2024-02-26T10:57:45;13.15;;;8.20;;
18316;SDS011;9284;52.298;21.164;2024-02-26T11:00:15;11.25;;;8.43;;
18316;SDS011;9284;52.298;21.164;2024-02-26T11:02:44;14.70;;;8.35;;
18316;SDS011;9284;52.298;21.164;2024-02-26T11:05:13;10.45;;;8.00;;
18316;SDS011;9284;52.298;21.164;2024-02-26T11:07:44;9.43;;;7.10;;
18316;SDS011;9284;52.298;21.164;2024-02-26T11:10:14;9.63;;;6.85;;
18316;SDS011;9284;52.298;21.164;2024-02-26T11:12:44;10.40;;;7.00;;
18316;SDS011;9284;52.298;21.164;2024-02-26T11:15:14;9.00;;;7.00;;
18316;SDS011;9284;52.298;21.164;2024-02-26T11:17:44;10.15;;;6.63;;
18316;SDS011;9284;52.298;21.164;2024-02-26T11:20:15;8.27;;;6.25;;
18316;SDS011;9284;52.298;21.164;2024-02-26T11:22:46;7.63;;;6.20;;
18316;SDS011;9284;52.298;21.164;2024-02-26T11:25:15;7.85;;;5.63;;
18316;SDS011;9284;52.298;21.164;2024-02-26T11:27:46;7.05;;;5.85;;
18316;SDS011;9284;52.298;21.164;2024-02-26T11:30:18;8.13;;;5.70;;
18316;SDS011;9284;52.298;21.164;2024-02-26T11:32:47;6.85;;;5.60;;
18316;SDS011;9284;52.298;21.164;2024-02-26T11:35:17;6.25;;;5.00;;
18316;SDS011;9284;52.298;21.164;2024-02-26T11:37:54;5.72;;;4.80;;
18316;SDS011;9284;52.298;21.164;2024-02-26T11:40:24;6.10;;;4.82;;
18316;SDS011;9284;52.298;21.164;2024-02-26T11:42:53;5.78;;;4.68;;
18316;SDS011;9284;52.298;21.164;2024-02-26T11:48:20;5.13;;;4.20;;
18316;SDS011;9284;52.298;21.164;2024-02-26T11:50:50;5.50;;;4.13;;
18316;SDS011;9284;52.298;21.164;2024-02-26T11:53:21;5.45;;;4.22;;
18316;SDS011;9284;52.298;21.164;2024-02-26T11:58:40;5.45;;;4.10;;
18316;SDS011;9284;52.298;21.164;2024-02-26T12:04:07;8.32;;;4.90;;
18316;SDS011;9284;52.298;21.164;2024-02-26T12:06:40;6.70;;;4.60;;
18316;SDS011;9284;52.298;21.164;2024-02-26T12:09:16;5.68;;;4.40;;
18316;SDS011;9284;52.298;21.164;2024-02-26T12:11:59;7.03;;;4.53;;
18316;SDS011;9284;52.298;21.164;2024-02-26T12:14:28;5.97;;;4.90;;
18316;SDS011;9284;52.298;21.164;2024-02-26T12:16:57;6.95;;;4.95;;
18316;SDS011;9284;52.298;21.164;2024-02-26T12:19:26;7.05;;;3.90;;
18316;SDS011;9284;52.298;21.164;2024-02-26T12:21:55;7.72;;;4.53;;
18316;SDS011;9284;52.298;21.164;2024-02-26T12:24:25;4.55;;;3.75;;
18316;SDS011;9284;52.298;21.164;2024-02-26T12:26:53;5.13;;;3.78;;
18316;SDS011;9284;52.298;21.164;2024-02-26T12:29:22;5.10;;;3.50;;
18316;SDS011;9284;52.298;21.164;2024-02-26T12:31:50;5.43;;;3.95;;
18316;SDS011;9284;52.298;21.164;2024-02-26T12:34:19;8.82;;;3.60;;
18316;SDS011;9284;52.298;21.164;2024-02-26T12:36:49;4.10;;;3.55;;
18316;SDS011;9284;52.298;21.164;2024-02-26T12:39:17;4.72;;;3.85;;
18316;SDS011;9284;52.298;21.164;2024-02-26T12:41:48;4.55;;;3.72;;
18316;SDS011;9284;52.298;21.164;2024-02-26T12:44:17;3.97;;;3.30;;
18316;SDS011;9284;52.298;21.164;2024-02-26T12:46:45;4.50;;;3.20;;
18316;SDS011;9284;52.298;21.164;2024-02-26T12:49:14;5.90;;;3.50;;
18316;SDS011;9284;52.298;21.164;2024-02-26T12:51:44;4.22;;;3.42;;
18316;SDS011;9284;52.298;21.164;2024-02-26T12:54:13;5.85;;;3.10;;
18316;SDS011;9284;52.298;21.164;2024-02-26T12:56:42;7.07;;;3.05;;
18316;SDS011;9284;52.298;21.164;2024-02-26T12:59:12;3.88;;;2.60;;
18316;SDS011;9284;52.298;21.164;2024-02-26T13:01:40;3.17;;;2.80;;
18316;SDS011;9284;52.298;21.164;2024-02-26T13:04:09;3.47;;;2.60;;
18316;SDS011;9284;52.298;21.164;2024-02-26T13:06:37;4.68;;;2.38;;
18316;SDS011;9284;52.298;21.164;2024-02-26T13:09:06;3.38;;;2.50;;
18316;SDS011;9284;52.298;21.164;2024-02-26T13:11:36;3.55;;;2.50;;
18316;SDS011;9284;52.298;21.164;2024-02-26T13:14:07;2.72;;;2.53;;
18316;SDS011;9284;52.298;21.164;2024-02-26T13:16:36;5.20;;;2.78;;
18316;SDS011;9284;52.298;21.164;2024-02-26T13:19:08;3.03;;;2.40;;
18316;SDS011;9284;52.298;21.164;2024-02-26T13:21:37;2.97;;;2.33;;
18316;SDS011;9284;52.298;21.164;2024-02-26T13:24:05;3.97;;;2.58;;
18316;SDS011;9284;52.298;21.164;2024-02-26T13:26:34;2.53;;;2.10;;
18316;SDS011;9284;52.298;21.164;2024-02-26T13:29:03;2.45;;;1.85;;
18316;SDS011;9284;52.298;21.164;2024-02-26T13:31:31;3.25;;;2.10;;
18316;SDS011;9284;52.298;21.164;2024-02-26T13:34:10;2.60;;;2.15;;
18316;SDS011;9284;52.298;21.164;2024-02-26T13:36:39;2.38;;;1.98;;
18316;SDS011;9284;52.298;21.164;2024-02-26T13:39:07;2.65;;;2.10;;
18316;SDS011;9284;52.298;21.164;2024-02-26T13:41:39;3.47;;;2.20;;
18316;SDS011;9284;52.298;21.164;2024-02-26T13:44:10;2.83;;;2.10;;
18316;SDS011;9284;52.298;21.164;2024-02-26T13:46:40;2.65;;;2.03;;
18316;SDS011;9284;52.298;21.164;2024-02-26T13:49:08;3.63;;;2.25;;
18316;SDS011;9284;52.298;21.164;2024-02-26T13:51:38;3.42;;;2.13;;
18316;SDS011;9284;52.298;21.164;2024-02-26T13:54:06;4.25;;;2.35;;
18316;SDS011;9284;52.298;21.164;2024-02-26T13:56:36;3.05;;;2.42;;
18316;SDS011;9284;52.298;21.164;2024-02-26T13:59:04;5.10;;;2.25;;
18316;SDS011;9284;52.298;21.164;2024-02-26T14:01:33;3.10;;;2.25;;
18316;SDS011;9284;52.298;21.164;2024-02-26T14:04:03;3.50;;;2.45;;
18316;SDS011;9284;52.298;21.164;2024-02-26T14:06:32;4.78;;;2.67;;
18316;SDS011;9284;52.298;21.164;2024-02-26T14:09:01;3.03;;;2.42;;
18316;SDS011;9284;52.298;21.164;2024-02-26T14:11:30;4.63;;;2.50;;
18316;SDS011;9284;52.298;21.164;2024-02-26T14:13:59;4.07;;;2.75;;
18316;SDS011;9284;52.298;21.164;2024-02-26T14:16:27;4.45;;;2.67;;
18316;SDS011;9284;52.298;21.164;2024-02-26T14:18:58;5.85;;;2.80;;
18316;SDS011;9284;52.298;21.164;2024-02-26T14:21:28;2.70;;;2.22;;
18316;SDS011;9284;52.298;21.164;2024-02-26T14:23:57;4.85;;;2.65;;
18316;SDS011;9284;52.298;21.164;2024-02-26T14:26:25;3.17;;;2.30;;
18316;SDS011;9284;52.298;21.164;2024-02-26T14:28:54;3.80;;;2.58;;
18316;SDS011;9284;52.298;21.164;2024-02-26T14:31:23;2.83;;;2.50;;
18316;SDS011;9284;52.298;21.164;2024-02-26T14:33:52;3.13;;;2.38;;
18316;SDS011;9284;52.298;21.164;2024-02-26T14:36:21;3.75;;;2.47;;
18316;SDS011;9284;52.298;21.164;2024-02-26T14:38:51;3.60;;;2.50;;
18316;SDS011;9284;52.298;21.164;2024-02-26T14:41:19;4.47;;;2.63;;
18316;SDS011;9284;52.298;21.164;2024-02-26T14:43:47;3.33;;;2.30;;
18316;SDS011;9284;52.298;21.164;2024-02-26T14:46:16;2.78;;;2.45;;
18316;SDS011;9284;52.298;21.164;2024-02-26T14:48:45;3.55;;;2.47;;